Time;durP1;ratioP1;P1;durP2;ratioP2;P2;SDS_P1;SDS_P2;PMS_P1;PMS_P2;Temp;Humidity;BMP_temperature;BMP_pressure;BME280_temperature;BME280_humidity;BME280_pressure;Samples;Min_cycle;Max_cycle;Signal;HPM_P1;HPM_P2
2023/08/02 00:00:35;;;;;;;10.73;3.23;;;;;;;15.07;100.00;99946.09;5283755;28;20028;-81
2023/08/02 00:03:06;;;;;;;7.28;2.78;;;;;;;15.04;100.00;99945.41;5283586;28;20028;-78
2023/08/02 00:05:38;;;;;;;8.97;3.50;;;;;;;14.97;100.00;99934.28;5282977;28;20051;-79
2023/08/02 00:08:09;;;;;;;11.23;3.70;;;;;;;14.87;100.00;99939.09;5283821;28;20352;-78
2023/08/02 00:10:41;;;;;;;8.60;3.50;;;;;;;14.91;100.00;99935.44;5298977;28;20078;-77
2023/08/02 00:13:12;;;;;;;9.00;3.73;;;;;;;14.82;100.00;99945.50;5283346;28;20040;-79
2023/08/02 00:15:44;;;;;;;5.47;2.67;;;;;;;14.78;100.00;99952.66;5283041;28;20124;-78
2023/08/02 00:18:16;;;;;;;7.28;3.30;;;;;;;14.71;100.00;99943.31;5283412;28;20035;-79
2023/08/02 00:20:48;;;;;;;6.80;3.35;;;;;;;14.64;100.00;99952.38;5281836;28;20036;-78
2023/08/02 00:23:19;;;;;;;9.67;3.20;;;;;;;14.63;100.00;99945.44;5282721;28;20034;-78
2023/08/02 00:25:51;;;;;;;9.70;3.00;;;;;;;14.61;100.00;99952.53;5282689;28;20419;-80
2023/08/02 00:28:22;;;;;;;7.53;3.63;;;;;;;14.57;100.00;99938.63;5283031;28;20039;-79
2023/08/02 00:30:54;;;;;;;6.90;3.20;;;;;;;14.57;100.00;99942.13;5281493;28;20029;-78
2023/08/02 00:33:25;;;;;;;12.30;3.80;;;;;;;14.58;100.00;99948.22;5282931;28;20476;-78
2023/08/02 00:35:57;;;;;;;6.47;3.27;;;;;;;14.66;100.00;99945.31;5282795;28;20032;-79
2023/08/02 00:38:29;;;;;;;8.57;3.70;;;;;;;14.71;100.00;99940.69;5282761;28;20060;-79
2023/08/02 00:41:05;;;;;;;9.50;3.43;;;;;;;14.83;100.00;99928.81;5282923;28;20066;-80
2023/08/02 00:43:44;;;;;;;7.63;3.33;;;;;;;14.83;100.00;99928.81;5282911;28;20397;-78
2023/08/02 00:46:17;;;;;;;8.05;3.30;;;;;;;14.90;100.00;99915.34;5282472;28;20031;-78
2023/08/02 00:48:49;;;;;;;8.18;3.38;;;;;;;14.94;100.00;99910.81;5282789;28;20500;-79
2023/08/02 00:51:20;;;;;;;6.83;2.80;;;;;;;14.94;100.00;99905.56;5284385;28;20131;-79
2023/08/02 00:53:51;;;;;;;7.83;2.80;;;;;;;14.95;100.00;99895.00;5286277;28;20040;-79
2023/08/02 00:56:23;;;;;;;7.87;3.40;;;;;;;15.03;100.00;99897.28;5286551;28;20039;-79
2023/08/02 00:58:54;;;;;;;9.20;3.50;;;;;;;15.03;100.00;99884.16;5287155;28;20506;-80
2023/08/02 01:01:26;;;;;;;8.17;3.07;;;;;;;15.05;100.00;99887.59;5287232;28;20032;-78
2023/08/02 01:03:58;;;;;;;9.32;2.83;;;;;;;15.11;100.00;99887.28;5289915;28;20037;-78
2023/08/02 01:06:37;;;;;;;9.80;3.47;;;;;;;15.08;100.00;99897.06;5293473;28;20036;-78
2023/08/02 01:09:17;;;;;;;7.50;3.00;;;;;;;15.13;100.00;99888.09;5294336;28;20032;-80
2023/08/02 01:11:54;;;;;;;8.95;3.25;;;;;;;15.13;100.00;99887.22;5293803;28;20029;-78
2023/08/02 01:14:26;;;;;;;5.75;3.15;;;;;;;15.18;100.00;99882.59;5292816;28;20025;-79
2023/08/02 01:16:58;;;;;;;8.10;3.73;;;;;;;15.19;100.00;99904.47;5290806;28;20047;-78
2023/08/02 01:19:30;;;;;;;8.90;4.35;;;;;;;15.21;100.00;99900.00;5288093;28;20298;-79
2023/08/02 01:22:02;;;;;;;;;;;;;;;15.28;100.00;99901.44;5287915;28;20024;-79
2023/08/02 01:24:35;;;;;;;8.25;3.30;;;;;;;15.27;100.00;99892.69;5287188;28;19958;-80
2023/08/02 01:27:13;;;;;;;9.75;3.83;;;;;;;15.24;100.00;99882.31;5287047;28;20036;-79
2023/08/02 01:29:47;;;;;;;8.63;3.50;;;;;;;15.24;100.00;99877.06;5288757;28;20070;-79
2023/08/02 01:32:23;;;;;;;10.25;3.50;;;;;;;15.27;100.00;99878.72;5286839;28;20035;-79
2023/08/02 01:34:55;;;;;;;12.23;3.40;;;;;;;15.28;100.00;99872.53;5286663;28;20080;-79
2023/08/02 01:37:26;;;;;;;10.13;4.35;;;;;;;15.29;100.00;99876.84;5286959;28;20039;-79
2023/08/02 01:39:58;;;;;;;8.23;3.30;;;;;;;15.28;100.00;99878.63;5288346;28;20107;-80
2023/08/02 01:42:29;;;;;;;9.67;3.87;;;;;;;15.31;100.00;99864.50;5291552;28;20031;-78
2023/08/02 01:45:01;;;;;;;9.10;3.78;;;;;;;15.30;100.00;99857.56;5296781;28;20088;-77
2023/08/02 01:47:32;;;;;;;10.67;3.50;;;;;;;15.27;100.00;99855.09;5298825;28;20032;-80
2023/08/02 01:50:04;;;;;;;8.60;3.80;;;;;;;15.22;100.00;99850.03;5299067;28;20032;-78
2023/08/02 01:52:36;;;;;;;8.52;3.30;;;;;;;15.21;100.00;99850.94;5301082;28;20043;-79
2023/08/02 01:55:07;;;;;;;13.17;4.70;;;;;;;15.20;100.00;99844.03;5314285;28;20062;-79
2023/08/02 01:57:39;;;;;;;9.75;3.78;;;;;;;15.20;100.00;99833.53;5296717;28;20041;-79
2023/08/02 02:00:12;;;;;;;11.70;4.93;;;;;;;15.17;100.00;99838.06;5297440;28;20033;-78
2023/08/02 02:02:43;;;;;;;9.45;3.50;;;;;;;15.12;100.00;99831.25;5297367;28;20080;-76
2023/08/02 02:05:15;;;;;;;11.90;3.17;;;;;;;15.04;100.00;99827.28;5298291;28;20063;-78
2023/08/02 02:07:46;;;;;;;8.20;3.60;;;;;;;15.00;100.00;99821.31;5298716;28;20119;-79
2023/08/02 02:10:17;;;;;;;8.30;3.50;;;;;;;14.97;100.00;99799.63;5298215;28;20033;-78
2023/08/02 02:12:49;;;;;;;9.20;3.83;;;;;;;14.92;100.00;99791.97;5293834;28;20116;-79
2023/08/02 02:15:20;;;;;;;6.53;3.20;;;;;;;14.98;100.00;99810.03;5293700;28;20040;-77
2023/08/02 02:17:51;;;;;;;11.43;3.90;;;;;;;14.97;100.00;99799.63;5290454;28;20032;-78
2023/08/02 02:20:23;;;;;;;7.60;3.67;;;;;;;14.99;100.00;99782.88;5286749;28;20040;-79
2023/08/02 02:22:57;;;;;;;11.57;3.60;;;;;;;14.99;100.00;99775.03;5287441;28;20028;-79
2023/08/02 02:25:28;;;;;;;6.82;3.53;;;;;;;14.99;100.00;99761.91;5286149;28;20405;-79
2023/08/02 02:28:00;;;;;;;8.30;3.80;;;;;;;15.00;100.00;99760.13;5287370;28;20029;-79
2023/08/02 02:30:32;;;;;;;6.77;3.87;;;;;;;15.00;100.00;99747.00;5287643;28;20032;-79
2023/08/02 02:33:04;;;;;;;13.15;4.07;;;;;;;15.04;100.00;99738.06;5286490;28;20017;-80
2023/08/02 02:35:35;;;;;;;11.45;4.35;;;;;;;15.02;100.00;99735.50;5286175;28;20064;-79
2023/08/02 02:38:07;;;;;;;8.50;3.00;;;;;;;15.05;100.00;99750.25;5286336;28;20110;-79
2023/08/02 02:40:38;;;;;;;8.57;3.90;;;;;;;15.07;100.00;99743.13;5267427;28;20033;-79
2023/08/02 02:43:09;;;;;;;10.37;3.43;;;;;;;15.08;100.00;99736.97;5285253;28;20548;-79
2023/08/02 02:45:41;;;;;;;8.73;4.03;;;;;;;15.06;100.00;99731.78;5285108;28;20040;-78
2023/08/02 02:48:12;;;;;;;11.77;4.10;;;;;;;15.11;100.00;99734.19;5285535;28;20029;-79
2023/08/02 02:50:44;;;;;;;9.07;3.60;;;;;;;15.10;100.00;99735.13;5283888;28;20124;-78
2023/08/02 02:53:19;;;;;;;10.97;4.23;;;;;;;15.13;100.00;99737.59;5285291;28;20101;-79
2023/08/02 02:55:53;;;;;;;9.75;3.60;;;;;;;15.13;100.00;99742.84;5284719;28;20415;-78
2023/08/02 02:58:25;;;;;;;7.80;3.50;;;;;;;15.15;100.00;99746.25;5284562;28;20051;-78
2023/08/02 03:00:57;;;;;;;6.17;3.47;;;;;;;15.17;100.00;99725.19;5283464;28;20037;-79
2023/08/02 03:03:28;;;;;;;8.00;3.33;;;;;;;15.17;100.00;99731.28;5284725;28;20057;-79
2023/08/02 03:06:01;;;;;;;8.03;3.67;;;;;;;15.14;100.00;99721.78;5284523;28;20025;-78
2023/08/02 03:08:32;;;;;;;9.00;3.80;;;;;;;15.16;100.00;99700.69;5282957;28;20033;-79
2023/08/02 03:11:04;;;;;;;6.53;3.07;;;;;;;15.18;100.00;99688.34;5284031;28;20503;-78
2023/08/02 03:13:35;;;;;;;7.43;2.80;;;;;;;15.17;100.00;99672.69;5299119;28;20497;-80
2023/08/02 03:16:06;;;;;;;7.73;3.93;;;;;;;15.13;100.00;99670.22;5283187;28;20408;-78
2023/08/02 03:18:38;;;;;;;7.13;4.17;;;;;;;15.14;100.00;99661.41;5283916;28;20040;-78
2023/08/02 03:21:09;;;;;;;9.07;4.10;;;;;;;15.14;100.00;99650.06;5284215;28;20047;-78
2023/08/02 03:23:45;;;;;;;6.07;3.37;;;;;;;15.13;100.00;99648.34;5283960;28;20061;-79
2023/08/02 03:26:16;;;;;;;7.43;3.35;;;;;;;15.11;100.00;99642.34;5284300;28;20494;-79
2023/08/02 03:28:47;;;;;;;8.50;3.57;;;;;;;15.11;100.00;99635.31;5283640;28;20060;-79
2023/08/02 03:31:19;;;;;;;8.30;3.23;;;;;;;15.11;100.00;99632.69;5283957;28;20051;-77
2023/08/02 03:33:50;;;;;;;4.90;2.93;;;;;;;15.11;100.00;99637.09;5284153;28;20033;-77
2023/08/02 03:36:21;;;;;;;6.27;3.60;;;;;;;15.10;100.00;99644.13;5283478;28;20043;-77
2023/08/02 03:38:53;;;;;;;9.03;3.50;;;;;;;15.11;100.00;99631.84;5284021;28;20039;-78
2023/08/02 03:41:24;;;;;;;5.80;3.60;;;;;;;15.13;100.00;99625.59;5283583;28;20472;-78
2023/08/02 03:43:55;;;;;;;7.50;4.00;;;;;;;15.11;100.00;99624.81;5283680;28;20047;-77
2023/08/02 03:46:27;;;;;;;7.53;3.90;;;;;;;15.12;100.00;99617.81;5282375;28;20064;-77
2023/08/02 03:48:58;;;;;;;5.13;3.30;;;;;;;15.10;100.00;99614.38;5283750;28;20520;-78
2023/08/02 03:51:29;;;;;;;9.30;3.90;;;;;;;15.09;100.00;99610.91;5284238;28;20497;-79
2023/08/02 03:54:03;;;;;;;12.63;3.73;;;;;;;15.10;100.00;99606.50;5284546;28;20040;-78
2023/08/02 03:56:35;;;;;;;10.77;3.72;;;;;;;15.04;100.00;99596.34;5282344;28;20074;-77
2023/08/02 03:59:06;;;;;;;6.10;4.30;;;;;;;15.06;100.00;99597.09;5283537;28;20260;-77
2023/08/02 04:01:37;;;;;;;7.13;4.23;;;;;;;15.06;100.00;99583.97;5282522;28;20033;-79
2023/08/02 04:04:09;;;;;;;6.03;3.23;;;;;;;15.02;100.00;99575.41;5282246;28;20033;-79
2023/08/02 04:06:40;;;;;;;16.80;6.20;;;;;;;15.02;100.00;99566.69;5283081;28;20056;-79
2023/08/02 04:09:12;;;;;;;9.00;6.20;;;;;;;15.00;100.00;99561.50;5283334;28;20033;-78
2023/08/02 04:11:43;;;;;;;7.33;3.43;;;;;;;15.00;100.00;99556.25;5283038;28;20032;-81
2023/08/02 04:14:14;;;;;;;10.83;4.40;;;;;;;15.00;100.00;99547.53;5283337;28;20029;-79
2023/08/02 04:16:46;;;;;;;7.90;4.33;;;;;;;14.99;100.00;99551.09;5281898;28;20036;-78
2023/08/02 04:19:17;;;;;;;8.77;4.77;;;;;;;14.99;100.00;99535.34;5283060;28;20036;-81
2023/08/02 04:21:48;;;;;;;6.13;3.77;;;;;;;14.98;100.00;99542.38;5283337;28;20488;-80
2023/08/02 04:24:20;;;;;;;9.20;4.30;;;;;;;14.99;100.00;99535.34;5282685;28;20614;-77
2023/08/02 04:26:51;;;;;;;10.93;4.20;;;;;;;14.99;100.00;99525.72;5282067;28;20098;-78
2023/08/02 04:29:23;;;;;;;7.03;4.23;;;;;;;14.99;100.00;99515.22;5281861;28;20029;-78
2023/08/02 04:31:54;;;;;;;7.70;4.20;;;;;;;15.01;100.00;99504.66;5283289;28;20033;-79
2023/08/02 04:34:25;;;;;;;12.03;4.90;;;;;;;15.00;100.00;99502.94;5283042;28;20107;-78
2023/08/02 04:36:57;;;;;;;11.20;4.70;;;;;;;15.03;100.00;99498.38;5282747;28;20127;-78
2023/08/02 04:39:28;;;;;;;11.87;4.40;;;;;;;15.06;100.00;99497.38;5283022;28;20025;-78
2023/08/02 04:42:03;;;;;;;7.83;4.77;;;;;;;15.07;100.00;99485.94;5283071;28;20032;-79
2023/08/02 04:44:34;;;;;;;11.65;4.43;;;;;;;15.07;100.00;99484.19;5283048;28;20376;-79
2023/08/02 04:47:06;;;;;;;8.73;4.73;;;;;;;15.10;100.00;99470.03;5282738;28;20037;-78
2023/08/02 04:49:37;;;;;;;7.27;3.80;;;;;;;15.09;100.00;99442.94;5281290;28;20068;-80
2023/08/02 04:52:08;;;;;;;9.53;4.63;;;;;;;15.11;100.00;99441.06;5283175;28;20032;-80
2023/08/02 04:54:40;;;;;;;8.20;4.50;;;;;;;15.15;100.00;99449.66;5282619;28;20162;-79
2023/08/02 04:57:12;;;;;;;7.03;4.57;;;;;;;15.17;100.00;99442.53;5282341;28;20049;-77
2023/08/02 04:59:43;;;;;;;12.82;5.57;;;;;;;15.19;100.00;99443.28;5282933;28;20025;-78
2023/08/02 05:02:15;;;;;;;8.43;5.13;;;;;;;15.19;100.00;99437.22;5282795;28;20036;-78
2023/08/02 05:04:52;;;;;;;9.00;3.80;;;;;;;15.17;100.00;99424.16;5282706;28;20111;-80
2023/08/02 05:07:24;;;;;;;9.68;4.70;;;;;;;15.12;100.00;99427.03;5282686;28;20040;-77
2023/08/02 05:09:55;;;;;;;10.80;4.77;;;;;;;15.06;100.00;99416.03;5282801;28;20083;-77
2023/08/02 05:12:27;;;;;;;9.17;5.17;;;;;;;15.02;100.00;99424.97;5282794;28;20037;-79
2023/08/02 05:14:58;;;;;;;11.33;5.33;;;;;;;14.93;100.00;99419.28;5282823;28;20477;-80
2023/08/02 05:17:30;;;;;;;8.95;4.82;;;;;;;14.92;100.00;99424.59;5282586;28;20502;-78
2023/08/02 05:20:02;;;;;;;11.17;4.93;;;;;;;14.86;100.00;99414.44;5282689;28;20029;-78
2023/08/02 05:22:34;;;;;;;;;;;;;;;14.76;100.00;99399.19;5282621;28;20039;-80
2023/08/02 05:25:06;;;;;;;10.90;5.20;;;;;;;14.81;100.00;99396.34;5281026;28;19912;-78
2023/08/02 05:27:37;;;;;;;;;;;;;;;14.69;100.00;99391.72;5282589;28;20468;-78
2023/08/02 05:30:09;;;;;;;9.50;5.13;;;;;;;14.75;100.00;99388.78;5282319;28;19927;-78
2023/08/02 05:32:40;;;;;;;7.20;4.60;;;;;;;14.72;100.00;99384.53;5282546;28;20025;-79
2023/08/02 05:35:12;;;;;;;8.40;5.67;;;;;;;14.70;100.00;99362.78;5282830;28;20025;-78
2023/08/02 05:37:43;;;;;;;8.13;5.03;;;;;;;14.66;100.00;99342.03;5284223;28;20097;-80
2023/08/02 05:40:15;;;;;;;12.07;5.73;;;;;;;14.69;100.00;99344.50;5286266;28;20064;-79
2023/08/02 05:42:47;;;;;;;13.77;5.40;;;;;;;14.67;100.00;99344.59;5284808;28;20086;-78
2023/08/02 05:45:18;;;;;;;7.82;5.35;;;;;;;14.66;100.00;99331.56;5286030;28;20094;-79
2023/08/02 05:47:50;;;;;;;7.43;5.73;;;;;;;14.64;100.00;99328.19;5285889;28;20468;-79
2023/08/02 05:50:22;;;;;;;11.88;6.50;;;;;;;14.69;100.00;99329.63;5286029;28;20498;-78
2023/08/02 05:52:53;;;;;;;8.83;5.10;;;;;;;14.67;100.00;99317.53;5285982;28;20032;-79
2023/08/02 05:55:24;;;;;;;11.40;5.80;;;;;;;14.67;100.00;99321.00;5286124;28;20066;-81
2023/08/02 05:57:56;;;;;;;8.50;5.27;;;;;;;14.70;100.00;99305.09;5286404;28;20045;-78
2023/08/02 06:00:27;;;;;;;11.27;5.60;;;;;;;14.76;100.00;99296.03;5285401;28;20559;-79
2023/08/02 06:02:58;;;;;;;10.63;5.30;;;;;;;14.72;100.00;99278.78;5286686;28;20593;-79
2023/08/02 06:05:30;;;;;;;7.60;5.00;;;;;;;14.75;100.00;99265.50;5286292;28;20035;-78
2023/08/02 06:08:01;;;;;;;7.30;5.57;;;;;;;14.76;100.00;99261.94;5286205;28;20105;-78
2023/08/02 06:10:32;;;;;;;8.20;4.63;;;;;;;14.80;100.00;99241.66;5285661;28;20036;-79
2023/08/02 06:13:04;;;;;;;7.60;4.57;;;;;;;14.77;100.00;99247.91;5285929;28;20368;-80
2023/08/02 06:15:35;;;;;;;6.63;4.77;;;;;;;14.79;100.00;99235.53;5285808;28;20111;-79
2023/08/02 06:18:07;;;;;;;5.87;4.40;;;;;;;14.76;100.00;99240.94;5284102;28;20082;-79
2023/08/02 06:20:38;;;;;;;7.20;4.37;;;;;;;14.77;100.00;99233.00;5285350;28;20104;-78
2023/08/02 06:23:09;;;;;;;6.60;4.30;;;;;;;14.82;100.00;99219.63;5284006;28;20035;-78
2023/08/02 06:25:41;;;;;;;7.17;4.97;;;;;;;14.85;100.00;99221.25;5285075;28;20017;-79
2023/08/02 06:28:12;;;;;;;5.43;4.23;;;;;;;14.85;100.00;99203.72;5285401;28;20025;-79
2023/08/02 06:30:44;;;;;;;8.00;4.40;;;;;;;14.84;100.00;99209.06;5285321;28;20051;-80
2023/08/02 06:33:15;;;;;;;5.27;3.90;;;;;;;14.84;100.00;99194.16;5284968;28;20036;-80
2023/08/02 06:35:46;;;;;;;5.90;4.20;;;;;;;14.90;100.00;99188.56;5284770;28;20364;-80
2023/08/02 06:38:18;;;;;;;5.53;4.13;;;;;;;14.92;100.00;99183.22;5283675;28;20044;-79
2023/08/02 06:40:49;;;;;;;6.13;4.40;;;;;;;14.92;100.00;99164.88;5285041;28;20063;-79
2023/08/02 06:43:20;;;;;;;5.83;4.20;;;;;;;14.91;100.00;99163.19;5284636;28;20031;-79
2023/08/02 06:45:52;;;;;;;5.90;4.20;;;;;;;14.93;100.00;99162.16;5283489;28;20029;-79
2023/08/02 06:48:24;;;;;;;4.40;3.50;;;;;;;14.87;100.00;99145.91;5283795;28;20081;-80
2023/08/02 06:50:56;;;;;;;5.82;4.03;;;;;;;14.86;100.00;99142.47;5285076;28;20059;-79
2023/08/02 06:53:27;;;;;;;5.37;3.60;;;;;;;14.90;100.00;99130.00;5283362;28;20029;-77
2023/08/02 06:55:59;;;;;;;4.40;3.50;;;;;;;14.87;100.00;99131.00;5284307;28;20174;-78
2023/08/02 06:58:30;;;;;;;6.73;4.00;;;;;;;14.89;100.00;99125.69;5284105;28;20091;-78
2023/08/02 07:01:14;;;;;;;7.80;3.60;;;;;;;14.92;100.00;99121.13;5284579;28;20048;-79
2023/08/02 07:03:46;;;;;;;3.72;3.00;;;;;;;14.91;100.00;99111.56;5284476;28;20028;-78
2023/08/02 07:06:19;;;;;;;6.28;4.47;;;;;;;14.94;100.00;99102.66;5284129;28;20040;-78
2023/08/02 07:08:50;;;;;;;6.03;3.90;;;;;;;14.90;100.00;99099.38;5284270;28;20048;-79
2023/08/02 07:11:22;;;;;;;5.53;3.97;;;;;;;14.98;100.00;99088.44;5284465;28;20404;-79
2023/08/02 07:13:53;;;;;;;4.80;3.80;;;;;;;15.00;100.00;99083.09;5284240;28;20121;-79
2023/08/02 07:16:25;;;;;;;3.77;3.40;;;;;;;14.97;100.00;99094.59;5284262;28;20166;-79
2023/08/02 07:18:56;;;;;;;6.27;3.97;;;;;;;14.99;100.00;99082.25;5284284;28;20059;-78
2023/08/02 07:21:27;;;;;;;4.40;3.27;;;;;;;15.02;100.00;99087.34;5284183;28;20029;-78
2023/08/02 07:23:59;;;;;;;4.63;3.53;;;;;;;15.01;100.00;99074.31;5284027;28;20032;-78
2023/08/02 07:26:30;;;;;;;5.03;3.40;;;;;;;15.10;100.00;99071.97;5283745;28;20215;-80
2023/08/02 07:29:02;;;;;;;3.83;3.33;;;;;;;15.08;100.00;99073.81;5284047;28;20523;-78
2023/08/02 07:31:33;;;;;;;4.10;3.23;;;;;;;15.17;100.00;99069.84;5284047;28;20502;-77
2023/08/02 07:34:04;;;;;;;4.63;3.30;;;;;;;15.17;100.00;99071.63;5284039;28;20079;-77
2023/08/02 07:36:36;;;;;;;4.97;3.50;;;;;;;15.26;100.00;99066.66;5283878;28;20040;-77
2023/08/02 07:39:07;;;;;;;4.27;3.43;;;;;;;15.24;100.00;99055.38;5283909;28;20036;-77
2023/08/02 07:41:38;;;;;;;4.90;3.30;;;;;;;15.35;100.00;99053.91;5283709;28;20028;-79
2023/08/02 07:44:10;;;;;;;4.33;3.57;;;;;;;15.39;100.00;99050.16;5283770;28;20087;-78
2023/08/02 07:46:41;;;;;;;4.97;3.93;;;;;;;15.48;100.00;99042.56;5283644;28;20040;-78
2023/08/02 07:49:12;;;;;;;5.37;3.50;;;;;;;15.53;100.00;99025.69;5283823;28;20537;-78
2023/08/02 07:51:44;;;;;;;4.30;3.47;;;;;;;15.61;100.00;99031.31;5283329;28;20032;-77
2023/08/02 07:54:15;;;;;;;5.57;3.50;;;;;;;15.59;100.00;99026.16;5283174;28;20067;-78
2023/08/02 07:56:47;;;;;;;5.37;3.60;;;;;;;15.60;100.00;99022.59;5283536;28;20035;-78
2023/08/02 07:59:18;;;;;;;5.57;3.43;;;;;;;15.64;100.00;99013.56;5282567;28;20049;-78
2023/08/02 08:01:51;;;;;;;4.47;3.20;;;;;;;15.74;100.00;99013.00;5283811;28;20032;-78
2023/08/02 08:04:22;;;;;;;4.55;3.17;;;;;;;15.75;100.00;99012.09;5283401;28;20064;-78
2023/08/02 08:06:54;;;;;;;4.27;3.13;;;;;;;15.83;100.00;99013.31;5283286;28;20064;-77
2023/08/02 08:09:25;;;;;;;4.67;3.40;;;;;;;15.84;100.00;99008.88;5283353;28;20039;-78
2023/08/02 08:11:56;;;;;;;3.40;2.77;;;;;;;15.88;100.00;98997.25;5282153;28;20279;-78
2023/08/02 08:14:29;;;;;;;3.67;2.73;;;;;;;15.94;100.00;99002.13;5283050;28;20025;-79
2023/08/02 08:17:00;;;;;;;3.63;2.50;;;;;;;15.90;100.00;98997.16;5283183;28;20049;-77
2023/08/02 08:19:34;;;;;;;5.23;2.93;;;;;;;15.93;100.00;98999.59;5283029;28;20371;-79
2023/08/02 08:22:06;;;;;;;3.53;2.60;;;;;;;15.92;100.00;98990.84;5283297;28;20033;-78
2023/08/02 08:24:37;;;;;;;2.90;2.50;;;;;;;15.96;100.00;98994.16;5282764;28;20097;-78
2023/08/02 08:27:09;;;;;;;2.63;2.30;;;;;;;16.04;100.00;98986.63;5283087;28;20115;-80
2023/08/02 08:29:40;;;;;;;3.80;2.13;;;;;;;16.21;100.00;98982.88;5283199;28;20108;-80
2023/08/02 08:32:11;;;;;;;2.33;2.13;;;;;;;16.35;100.00;98982.84;5283056;28;20033;-79
2023/08/02 08:34:43;;;;;;;5.87;2.33;;;;;;;16.29;100.00;98980.59;5283099;28;20033;-78
2023/08/02 08:37:14;;;;;;;4.23;2.13;;;;;;;16.35;100.00;98995.97;5282771;28;20044;-79
2023/08/02 08:39:45;;;;;;;3.37;2.00;;;;;;;16.35;100.00;98988.09;5282953;28;20532;-79
2023/08/02 08:42:17;;;;;;;3.20;2.10;;;;;;;16.44;100.00;98989.28;5282734;28;20040;-78
2023/08/02 08:44:51;;;;;;;2.40;1.97;;;;;;;16.61;100.00;98975.00;5283092;28;20036;-79
2023/08/02 08:47:24;;;;;;;3.92;2.50;;;;;;;16.91;100.00;98979.19;5282589;28;20113;-79
2023/08/02 08:50:00;;;;;;;4.32;2.38;;;;;;;16.90;100.00;98974.88;5281719;28;20032;-80
2023/08/02 08:52:34;;;;;;;5.45;2.30;;;;;;;16.94;100.00;98976.34;5283228;28;20483;-79
2023/08/02 08:55:08;;;;;;;4.22;2.45;;;;;;;16.96;100.00;98977.09;5282588;28;20059;-79
2023/08/02 08:57:40;;;;;;;4.93;2.60;;;;;;;17.05;100.00;98963.31;5283039;28;20056;-80
2023/08/02 09:00:16;;;;;;;4.05;2.70;;;;;;;17.20;100.00;98963.19;5283022;28;20039;-81
2023/08/02 09:02:48;;;;;;;5.15;2.55;;;;;;;17.25;100.00;98958.44;5283315;28;20040;-80
2023/08/02 09:05:20;;;;;;;2.50;2.10;;;;;;;17.30;100.00;98958.97;5283142;28;20178;-79
2023/08/02 09:07:59;;;;;;;2.22;2.03;;;;;;;17.44;100.00;98950.09;5282456;28;20429;-80
2023/08/02 09:10:32;;;;;;;5.85;2.10;;;;;;;17.45;100.00;98951.75;5282760;28;20077;-80
2023/08/02 09:13:04;;;;;;;3.70;2.30;;;;;;;17.79;100.00;98947.59;5286744;28;20591;-79
2023/08/02 09:15:35;;;;;;;3.65;2.20;;;;;;;17.76;100.00;98941.66;5286661;28;20112;-80
2023/08/02 09:18:07;;;;;;;3.83;2.30;;;;;;;17.98;100.00;98939.22;5286946;28;20041;-79
2023/08/02 09:20:38;;;;;;;2.43;2.20;;;;;;;18.12;100.00;98930.28;5286286;28;20060;-79
2023/08/02 09:23:15;;;;;;;2.27;2.07;;;;;;;18.15;100.00;98930.06;5286580;28;20032;-80
2023/08/02 09:25:46;;;;;;;3.30;1.90;;;;;;;18.25;100.00;98927.56;5286148;28;20024;-79
2023/08/02 09:28:18;;;;;;;2.77;2.27;;;;;;;18.58;100.00;98912.81;5286234;28;20050;-80
2023/08/02 09:30:49;;;;;;;2.00;1.90;;;;;;;18.72;100.00;98917.91;5286278;28;20401;-80
2023/08/02 09:33:20;;;;;;;4.23;1.90;;;;;;;18.91;100.00;98901.47;5286078;28;20046;-79
2023/08/02 09:35:52;;;;;;;2.33;1.37;;;;;;;18.84;100.00;98913.50;5285958;28;20028;-79
2023/08/02 09:38:23;;;;;;;4.07;1.63;;;;;;;18.81;100.00;98903.13;5286303;28;20028;-79
2023/08/02 09:40:55;;;;;;;1.03;1.03;;;;;;;18.73;100.00;98913.44;5286276;28;20032;-80
2023/08/02 09:43:26;;;;;;;2.47;1.47;;;;;;;18.87;100.00;98899.19;5286097;28;20033;-79
2023/08/02 09:45:58;;;;;;;1.30;1.20;;;;;;;19.22;100.00;98900.88;5284667;28;20483;-80
2023/08/02 09:48:38;;;;;;;1.93;1.40;;;;;;;19.92;100.00;98907.66;5285879;28;20395;-81
2023/08/02 09:51:10;;;;;;;1.35;1.15;;;;;;;20.36;100.00;98902.28;5286326;28;20406;-82
2023/08/02 09:53:53;;;;;;;1.60;1.17;;;;;;;20.66;100.00;98900.72;5286015;28;20032;-81
2023/08/02 09:56:25;;;;;;;;;;;;;;;20.91;100.00;98899.44;5284938;28;20538;-78
2023/08/02 09:58:58;;;;;;;1.97;0.97;;;;;;;20.56;100.00;98901.47;5285824;28;19958;-81
2023/08/02 10:01:31;;;;;;;2.78;0.88;;;;;;;20.38;100.00;98898.56;5286451;28;20324;-82
2023/08/02 10:04:06;;;;;;;1.80;0.95;;;;;;;20.32;100.00;98899.06;5289420;28;20031;-81
2023/08/02 10:06:42;;;;;;;1.20;1.10;;;;;;;20.09;100.00;98900.13;5288470;28;20024;-81
2023/08/02 10:09:19;;;;;;;1.00;1.00;;;;;;;20.28;100.00;98892.34;5285636;28;20039;-82
2023/08/02 10:11:50;;;;;;;1.95;1.08;;;;;;;21.19;100.00;98897.03;5285226;28;20035;-80
2023/08/02 10:14:22;;;;;;;1.93;0.80;;;;;;;21.46;100.00;98894.66;5285578;28;20445;-81
2023/08/02 10:16:55;;;;;;;1.30;1.00;;;;;;;22.53;100.00;98879.78;5285457;28;20037;-80
2023/08/02 10:19:30;;;;;;;0.98;0.88;;;;;;;24.41;95.23;98874.97;5285434;28;20448;-82
2023/08/02 10:22:06;;;;;;;1.20;1.10;;;;;;;24.49;85.92;98874.16;5285525;28;20033;-82
2023/08/02 10:24:39;;;;;;;1.40;1.00;;;;;;;23.78;82.05;98862.56;5285047;28;20454;-81
2023/08/02 10:27:11;;;;;;;2.55;1.05;;;;;;;23.06;86.85;98849.16;5285027;28;20472;-81
2023/08/02 10:29:43;;;;;;;2.42;1.23;;;;;;;22.53;90.37;98854.06;5285155;28;20124;-81
2023/08/02 10:32:17;;;;;;;1.73;0.75;;;;;;;22.44;91.99;98856.75;5285196;28;20033;-79
2023/08/02 10:34:52;;;;;;;0.88;0.88;;;;;;;22.78;91.91;98843.78;5285079;28;20052;-82
2023/08/02 10:37:50;;;;;;;1.38;1.02;;;;;;;22.78;91.88;98830.50;5285008;28;20425;-81
2023/08/02 10:40:24;;;;;;;3.45;1.30;;;;;;;22.22;93.20;98833.00;5283742;28;20040;-81
2023/08/02 10:43:07;;;;;;;1.05;1.00;;;;;;;22.09;94.24;98813.91;5283929;28;20044;-80
2023/08/02 10:45:38;;;;;;;;;;;;;;;22.22;93.82;98818.91;5285314;28;20464;-80
2023/08/02 10:48:39;;;;;;;2.63;1.07;;;;;;;21.58;94.72;98820.31;5288073;28;20020;-81
2023/08/02 10:51:30;;;;;;;1.58;1.25;;;;;;;20.94;99.47;98822.38;5291640;28;20045;-81
2023/08/02 10:54:22;;;;;;;1.60;1.50;;;;;;;20.53;100.00;98824.97;5294230;28;20039;-81
2023/08/02 10:56:53;;;;;;;6.65;1.80;;;;;;;19.93;100.00;98815.94;5288113;28;20417;-78
2023/08/02 10:59:25;;;;;;;3.00;1.50;;;;;;;19.71;100.00;98793.88;5285561;28;20108;-80
2023/08/02 11:01:58;;;;;;;2.73;1.83;;;;;;;19.76;100.00;98785.63;5285545;28;20459;-80
2023/08/02 11:04:33;;;;;;;2.55;1.70;;;;;;;19.59;100.00;98782.50;5284858;28;20044;-79
2023/08/02 11:07:16;;;;;;;1.77;1.65;;;;;;;19.45;100.00;98777.53;5284686;28;20028;-79
2023/08/02 11:09:52;;;;;;;2.63;1.85;;;;;;;19.13;100.00;98781.81;5284373;28;20025;-79
2023/08/02 11:12:23;;;;;;;3.63;1.92;;;;;;;19.05;100.00;98800.06;5284450;28;20356;-78
2023/08/02 11:14:54;;;;;;;5.87;2.17;;;;;;;19.09;100.00;98796.25;5283874;28;20078;-78
2023/08/02 11:17:26;;;;;;;12.47;2.97;;;;;;;19.08;100.00;98794.56;5284265;28;20028;-77
2023/08/02 11:19:57;;;;;;;12.07;2.73;;;;;;;18.94;100.00;98792.16;5284207;28;20087;-78
2023/08/02 11:22:37;;;;;;;2.97;2.40;;;;;;;18.83;100.00;98790.34;5284388;28;20544;-78
2023/08/02 11:25:18;;;;;;;3.03;2.20;;;;;;;18.68;100.00;98796.84;5283923;28;20357;-77
2023/08/02 11:28:02;;;;;;;3.45;2.20;;;;;;;18.57;100.00;98811.69;5284492;28;20441;-80
2023/08/02 11:30:33;;;;;;;2.72;2.25;;;;;;;18.66;100.00;98812.78;5284101;28;20333;-80
2023/08/02 11:33:05;;;;;;;7.47;2.73;;;;;;;18.78;100.00;98810.97;5284356;28;20029;-78
2023/08/02 11:35:37;;;;;;;4.55;2.85;;;;;;;19.24;100.00;98798.59;5283520;28;20055;-80
2023/08/02 11:38:12;;;;;;;2.37;2.17;;;;;;;19.41;100.00;98787.50;5283944;28;20029;-79
2023/08/02 11:40:44;;;;;;;2.53;2.33;;;;;;;20.12;100.00;98784.31;5283713;28;20029;-80
2023/08/02 11:43:15;;;;;;;3.93;1.90;;;;;;;20.63;100.00;98787.13;5284156;28;20028;-81
2023/08/02 11:45:47;;;;;;;1.97;1.53;;;;;;;21.05;100.00;98789.66;5283421;28;20029;-80
2023/08/02 11:48:25;;;;;;;2.38;1.80;;;;;;;22.45;100.00;98790.25;5283129;28;20444;-82
2023/08/02 11:50:59;;;;;;;3.17;1.80;;;;;;;23.87;91.50;98803.16;5283572;28;20079;-82